sensor_id;sensor_type;location;lat;lon;timestamp;P1;durP1;ratioP1;P2;durP2;ratioP2
27424;SDS011;15244;49.088;11.886;2023-10-31T00:03:40;2.38;;;1.70;;
27424;SDS011;15244;49.088;11.886;2023-10-31T00:08:44;2.05;;;1.27;;
27424;SDS011;15244;49.088;11.886;2023-10-31T00:13:45;1.10;;;1.00;;
27424;SDS011;15244;49.088;11.886;2023-10-31T00:18:47;1.95;;;1.00;;
27424;SDS011;15244;49.088;11.886;2023-10-31T00:23:48;1.08;;;0.98;;
27424;SDS011;15244;49.088;11.886;2023-10-31T00:28:50;1.40;;;0.98;;
27424;SDS011;15244;49.088;11.886;2023-10-31T00:33:52;0.70;;;0.70;;
27424;SDS011;15244;49.088;11.886;2023-10-31T00:38:53;0.77;;;0.77;;
27424;SDS011;15244;49.088;11.886;2023-10-31T00:43:55;0.50;;;0.50;;
27424;SDS011;15244;49.088;11.886;2023-10-31T00:48:57;0.75;;;0.73;;
27424;SDS011;15244;49.088;11.886;2023-10-31T00:53:59;1.00;;;0.47;;
27424;SDS011;15244;49.088;11.886;2023-10-31T00:59:00;0.75;;;0.75;;
27424;SDS011;15244;49.088;11.886;2023-10-31T01:04:02;0.63;;;0.35;;
27424;SDS011;15244;49.088;11.886;2023-10-31T01:09:05;0.52;;;0.52;;
27424;SDS011;15244;49.088;11.886;2023-10-31T01:14:06;0.45;;;0.45;;
27424;SDS011;15244;49.088;11.886;2023-10-31T01:19:08;0.60;;;0.60;;
27424;SDS011;15244;49.088;11.886;2023-10-31T01:24:09;0.40;;;0.40;;
27424;SDS011;15244;49.088;11.886;2023-10-31T01:29:11;0.57;;;0.57;;
27424;SDS011;15244;49.088;11.886;2023-10-31T01:34:13;0.63;;;0.50;;
27424;SDS011;15244;49.088;11.886;2023-10-31T01:39:14;0.40;;;0.40;;
27424;SDS011;15244;49.088;11.886;2023-10-31T01:44:16;1.38;;;0.50;;
27424;SDS011;15244;49.088;11.886;2023-10-31T01:49:18;0.40;;;0.40;;
27424;SDS011;15244;49.088;11.886;2023-10-31T01:54:19;0.47;;;0.47;;
27424;SDS011;15244;49.088;11.886;2023-10-31T01:59:22;0.80;;;0.50;;
27424;SDS011;15244;49.088;11.886;2023-10-31T02:04:23;0.40;;;0.40;;
27424;SDS011;15244;49.088;11.886;2023-10-31T02:09:25;0.50;;;0.50;;
27424;SDS011;15244;49.088;11.886;2023-10-31T02:14:30;1.58;;;0.50;;
27424;SDS011;15244;49.088;11.886;2023-10-31T02:19:31;0.55;;;0.55;;
27424;SDS011;15244;49.088;11.886;2023-10-31T02:24:33;0.43;;;0.43;;
27424;SDS011;15244;49.088;11.886;2023-10-31T02:29:35;0.50;;;0.50;;
27424;SDS011;15244;49.088;11.886;2023-10-31T02:34:37;0.40;;;0.40;;
27424;SDS011;15244;49.088;11.886;2023-10-31T02:39:38;0.40;;;0.40;;
27424;SDS011;15244;49.088;11.886;2023-10-31T02:44:41;0.60;;;0.60;;
27424;SDS011;15244;49.088;11.886;2023-10-31T02:49:43;0.60;;;0.60;;
27424;SDS011;15244;49.088;11.886;2023-10-31T02:54:45;0.50;;;0.50;;
27424;SDS011;15244;49.088;11.886;2023-10-31T02:59:46;0.65;;;0.65;;
27424;SDS011;15244;49.088;11.886;2023-10-31T03:04:48;0.50;;;0.40;;
27424;SDS011;15244;49.088;11.886;2023-10-31T03:09:50;0.47;;;0.47;;
27424;SDS011;15244;49.088;11.886;2023-10-31T03:14:53;0.47;;;0.45;;
27424;SDS011;15244;49.088;11.886;2023-10-31T03:19:54;0.30;;;0.30;;
27424;SDS011;15244;49.088;11.886;2023-10-31T03:24:56;0.95;;;0.60;;
27424;SDS011;15244;49.088;11.886;2023-10-31T03:29:58;1.80;;;1.70;;
27424;SDS011;15244;49.088;11.886;2023-10-31T03:35:00;0.47;;;0.47;;
27424;SDS011;15244;49.088;11.886;2023-10-31T03:40:02;0.65;;;0.40;;
27424;SDS011;15244;49.088;11.886;2023-10-31T03:45:04;0.68;;;0.60;;
27424;SDS011;15244;49.088;11.886;2023-10-31T03:50:08;0.45;;;0.45;;
27424;SDS011;15244;49.088;11.886;2023-10-31T03:55:10;0.20;;;0.20;;
27424;SDS011;15244;49.088;11.886;2023-10-31T04:00:12;0.10;;;0.10;;
27424;SDS011;15244;49.088;11.886;2023-10-31T04:05:14;0.40;;;0.20;;
27424;SDS011;15244;49.088;11.886;2023-10-31T04:10:17;0.38;;;0.38;;
27424;SDS011;15244;49.088;11.886;2023-10-31T04:15:19;0.88;;;0.88;;
27424;SDS011;15244;49.088;11.886;2023-10-31T04:20:21;0.20;;;0.20;;
27424;SDS011;15244;49.088;11.886;2023-10-31T04:25:23;0.60;;;0.50;;
27424;SDS011;15244;49.088;11.886;2023-10-31T04:30:25;0.43;;;0.43;;
27424;SDS011;15244;49.088;11.886;2023-10-31T04:35:27;0.57;;;0.22;;
27424;SDS011;15244;49.088;11.886;2023-10-31T04:40:29;0.40;;;0.20;;
27424;SDS011;15244;49.088;11.886;2023-10-31T04:45:30;2.67;;;1.77;;
27424;SDS011;15244;49.088;11.886;2023-10-31T04:50:32;0.57;;;0.35;;
27424;SDS011;15244;49.088;11.886;2023-10-31T04:55:33;0.40;;;0.22;;
27424;SDS011;15244;49.088;11.886;2023-10-31T05:00:35;0.50;;;0.40;;
27424;SDS011;15244;49.088;11.886;2023-10-31T05:05:37;0.32;;;0.32;;
27424;SDS011;15244;49.088;11.886;2023-10-31T05:10:38;0.47;;;0.30;;
27424;SDS011;15244;49.088;11.886;2023-10-31T05:15:40;0.40;;;0.40;;
27424;SDS011;15244;49.088;11.886;2023-10-31T05:20:42;0.95;;;0.30;;
27424;SDS011;15244;49.088;11.886;2023-10-31T05:25:43;0.32;;;0.32;;
27424;SDS011;15244;49.088;11.886;2023-10-31T05:30:45;0.40;;;0.35;;
27424;SDS011;15244;49.088;11.886;2023-10-31T05:35:46;0.30;;;0.30;;
27424;SDS011;15244;49.088;11.886;2023-10-31T05:40:48;0.47;;;0.47;;
27424;SDS011;15244;49.088;11.886;2023-10-31T05:45:50;0.55;;;0.40;;
27424;SDS011;15244;49.088;11.886;2023-10-31T05:50:51;0.73;;;0.50;;
27424;SDS011;15244;49.088;11.886;2023-10-31T05:55:53;0.30;;;0.30;;
27424;SDS011;15244;49.088;11.886;2023-10-31T06:00:54;0.20;;;0.20;;
27424;SDS011;15244;49.088;11.886;2023-10-31T06:05:57;0.20;;;0.20;;
27424;SDS011;15244;49.088;11.886;2023-10-31T06:10:59;3.45;;;0.30;;
27424;SDS011;15244;49.088;11.886;2023-10-31T06:16:01;0.28;;;0.28;;
27424;SDS011;15244;49.088;11.886;2023-10-31T06:21:29;0.60;;;0.30;;
27424;SDS011;15244;49.088;11.886;2023-10-31T06:26:30;0.50;;;0.20;;
27424;SDS011;15244;49.088;11.886;2023-10-31T06:31:32;0.30;;;0.30;;
27424;SDS011;15244;49.088;11.886;2023-10-31T06:36:34;0.28;;;0.25;;
27424;SDS011;15244;49.088;11.886;2023-10-31T06:41:38;0.43;;;0.30;;
27424;SDS011;15244;49.088;11.886;2023-10-31T06:46:40;1.13;;;0.52;;
27424;SDS011;15244;49.088;11.886;2023-10-31T06:51:42;0.55;;;0.32;;
27424;SDS011;15244;49.088;11.886;2023-10-31T06:56:44;0.60;;;0.40;;
27424;SDS011;15244;49.088;11.886;2023-10-31T07:01:45;0.30;;;0.30;;
27424;SDS011;15244;49.088;11.886;2023-10-31T07:06:48;0.30;;;0.30;;
27424;SDS011;15244;49.088;11.886;2023-10-31T07:11:51;1.60;;;0.50;;
27424;SDS011;15244;49.088;11.886;2023-10-31T07:16:53;0.20;;;0.20;;
27424;SDS011;15244;49.088;11.886;2023-10-31T07:21:55;1.45;;;0.30;;
27424;SDS011;15244;49.088;11.886;2023-10-31T07:26:56;0.43;;;0.15;;
27424;SDS011;15244;49.088;11.886;2023-10-31T07:32:01;0.70;;;0.30;;
27424;SDS011;15244;49.088;11.886;2023-10-31T07:37:03;0.57;;;0.50;;
27424;SDS011;15244;49.088;11.886;2023-10-31T07:42:05;0.45;;;0.20;;
27424;SDS011;15244;49.088;11.886;2023-10-31T07:47:07;0.77;;;0.30;;
27424;SDS011;15244;49.088;11.886;2023-10-31T07:52:09;0.40;;;0.30;;
27424;SDS011;15244;49.088;11.886;2023-10-31T07:57:12;0.77;;;0.40;;
27424;SDS011;15244;49.088;11.886;2023-10-31T08:02:13;0.45;;;0.30;;
27424;SDS011;15244;49.088;11.886;2023-10-31T08:07:18;1.10;;;0.28;;
27424;SDS011;15244;49.088;11.886;2023-10-31T08:12:19;1.55;;;0.40;;
27424;SDS011;15244;49.088;11.886;2023-10-31T08:17:21;0.40;;;0.30;;
27424;SDS011;15244;49.088;11.886;2023-10-31T08:22:23;0.43;;;0.43;;
27424;SDS011;15244;49.088;11.886;2023-10-31T08:27:25;1.27;;;0.40;;
27424;SDS011;15244;49.088;11.886;2023-10-31T08:32:27;1.75;;;0.32;;
27424;SDS011;15244;49.088;11.886;2023-10-31T08:37:29;1.25;;;0.40;;
27424;SDS011;15244;49.088;11.886;2023-10-31T08:42:31;1.38;;;0.30;;
27424;SDS011;15244;49.088;11.886;2023-10-31T08:47:35;0.73;;;0.45;;
27424;SDS011;15244;49.088;11.886;2023-10-31T08:52:38;0.55;;;0.20;;
27424;SDS011;15244;49.088;11.886;2023-10-31T08:57:40;0.20;;;0.20;;
27424;SDS011;15244;49.088;11.886;2023-10-31T09:02:42;0.50;;;0.30;;
27424;SDS011;15244;49.088;11.886;2023-10-31T09:07:46;0.20;;;0.20;;
27424;SDS011;15244;49.088;11.886;2023-10-31T09:12:49;0.20;;;0.20;;
27424;SDS011;15244;49.088;11.886;2023-10-31T09:17:51;0.95;;;0.47;;
27424;SDS011;15244;49.088;11.886;2023-10-31T09:22:53;0.40;;;0.40;;
27424;SDS011;15244;49.088;11.886;2023-10-31T09:27:57;0.20;;;0.20;;
27424;SDS011;15244;49.088;11.886;2023-10-31T09:33:01;0.38;;;0.30;;
27424;SDS011;15244;49.088;11.886;2023-10-31T09:38:05;0.20;;;0.20;;
27424;SDS011;15244;49.088;11.886;2023-10-31T09:43:08;1.00;;;0.30;;
27424;SDS011;15244;49.088;11.886;2023-10-31T09:48:10;0.57;;;0.30;;
27424;SDS011;15244;49.088;11.886;2023-10-31T09:53:14;1.15;;;0.30;;
27424;SDS011;15244;49.088;11.886;2023-10-31T09:58:18;0.15;;;0.15;;
27424;SDS011;15244;49.088;11.886;2023-10-31T10:03:19;0.52;;;0.32;;
27424;SDS011;15244;49.088;11.886;2023-10-31T10:08:22;0.35;;;0.35;;
27424;SDS011;15244;49.088;11.886;2023-10-31T10:13:24;0.40;;;0.22;;
27424;SDS011;15244;49.088;11.886;2023-10-31T10:18:30;0.35;;;0.20;;
27424;SDS011;15244;49.088;11.886;2023-10-31T10:23:36;0.45;;;0.10;;
27424;SDS011;15244;49.088;11.886;2023-10-31T10:28:38;0.20;;;0.20;;
27424;SDS011;15244;49.088;11.886;2023-10-31T10:33:41;0.93;;;0.43;;
27424;SDS011;15244;49.088;11.886;2023-10-31T10:38:43;0.40;;;0.30;;
27424;SDS011;15244;49.088;11.886;2023-10-31T10:43:49;0.40;;;0.40;;
27424;SDS011;15244;49.088;11.886;2023-10-31T10:48:55;0.57;;;0.10;;
27424;SDS011;15244;49.088;11.886;2023-10-31T10:54:05;1.30;;;0.32;;
27424;SDS011;15244;49.088;11.886;2023-10-31T10:59:14;1.25;;;0.30;;
27424;SDS011;15244;49.088;11.886;2023-10-31T11:04:21;0.47;;;0.20;;
27424;SDS011;15244;49.088;11.886;2023-10-31T11:09:23;0.70;;;0.20;;
27424;SDS011;15244;49.088;11.886;2023-10-31T11:14:25;0.30;;;0.30;;
27424;SDS011;15244;49.088;11.886;2023-10-31T11:19:28;0.20;;;0.20;;
27424;SDS011;15244;49.088;11.886;2023-10-31T11:24:31;3.78;;;0.38;;
27424;SDS011;15244;49.088;11.886;2023-10-31T11:29:36;0.10;;;0.10;;
27424;SDS011;15244;49.088;11.886;2023-10-31T11:34:38;0.20;;;0.13;;
27424;SDS011;15244;49.088;11.886;2023-10-31T11:39:42;0.20;;;0.20;;
27424;SDS011;15244;49.088;11.886;2023-10-31T11:45:27;0.65;;;0.20;;
27424;SDS011;15244;49.088;11.886;2023-10-31T11:50:30;0.35;;;0.32;;
27424;SDS011;15244;49.088;11.886;2023-10-31T11:55:34;0.20;;;0.13;;
27424;SDS011;15244;49.088;11.886;2023-10-31T12:00:37;1.08;;;0.38;;
27424;SDS011;15244;49.088;11.886;2023-10-31T12:05:38;0.63;;;0.40;;
27424;SDS011;15244;49.088;11.886;2023-10-31T12:10:43;0.73;;;0.50;;
27424;SDS011;15244;49.088;11.886;2023-10-31T12:15:51;0.38;;;0.30;;
27424;SDS011;15244;49.088;11.886;2023-10-31T12:20:59;1.08;;;0.60;;
27424;SDS011;15244;49.088;11.886;2023-10-31T12:26:01;0.85;;;0.35;;
27424;SDS011;15244;49.088;11.886;2023-10-31T12:31:03;1.60;;;0.52;;
27424;SDS011;15244;49.088;11.886;2023-10-31T12:36:05;0.50;;;0.30;;
27424;SDS011;15244;49.088;11.886;2023-10-31T12:41:08;2.00;;;0.57;;
27424;SDS011;15244;49.088;11.886;2023-10-31T12:46:27;0.75;;;0.65;;
27424;SDS011;15244;49.088;11.886;2023-10-31T12:51:33;1.65;;;0.50;;
27424;SDS011;15244;49.088;11.886;2023-10-31T12:56:38;0.50;;;0.50;;
27424;SDS011;15244;49.088;11.886;2023-10-31T13:01:42;1.85;;;0.60;;
27424;SDS011;15244;49.088;11.886;2023-10-31T13:06:54;0.70;;;0.70;;
27424;SDS011;15244;49.088;11.886;2023-10-31T13:12:05;0.40;;;0.40;;
27424;SDS011;15244;49.088;11.886;2023-10-31T13:17:08;1.58;;;0.50;;
27424;SDS011;15244;49.088;11.886;2023-10-31T13:22:09;4.35;;;0.95;;
27424;SDS011;15244;49.088;11.886;2023-10-31T13:27:15;1.33;;;0.60;;
27424;SDS011;15244;49.088;11.886;2023-10-31T13:32:17;1.58;;;0.50;;
27424;SDS011;15244;49.088;11.886;2023-10-31T13:37:21;0.85;;;0.50;;
27424;SDS011;15244;49.088;11.886;2023-10-31T13:42:23;1.25;;;0.40;;
27424;SDS011;15244;49.088;11.886;2023-10-31T13:47:27;1.48;;;0.60;;
27424;SDS011;15244;49.088;11.886;2023-10-31T13:52:31;2.17;;;0.50;;
27424;SDS011;15244;49.088;11.886;2023-10-31T13:57:33;2.42;;;0.77;;
27424;SDS011;15244;49.088;11.886;2023-10-31T14:02:35;1.25;;;0.50;;
27424;SDS011;15244;49.088;11.886;2023-10-31T14:07:39;2.42;;;0.98;;
27424;SDS011;15244;49.088;11.886;2023-10-31T14:12:41;2.28;;;0.85;;
27424;SDS011;15244;49.088;11.886;2023-10-31T14:17:43;1.30;;;0.50;;
27424;SDS011;15244;49.088;11.886;2023-10-31T14:22:49;2.35;;;0.98;;
27424;SDS011;15244;49.088;11.886;2023-10-31T14:27:51;2.78;;;0.77;;
27424;SDS011;15244;49.088;11.886;2023-10-31T14:32:53;1.50;;;0.80;;
27424;SDS011;15244;49.088;11.886;2023-10-31T14:37:54;1.60;;;0.50;;
27424;SDS011;15244;49.088;11.886;2023-10-31T14:42:57;2.65;;;0.68;;
27424;SDS011;15244;49.088;11.886;2023-10-31T14:47:58;0.77;;;0.57;;
27424;SDS011;15244;49.088;11.886;2023-10-31T14:53:00;2.13;;;0.93;;
27424;SDS011;15244;49.088;11.886;2023-10-31T14:58:02;3.58;;;0.90;;
27424;SDS011;15244;49.088;11.886;2023-10-31T15:03:04;1.92;;;0.77;;
27424;SDS011;15244;49.088;11.886;2023-10-31T15:08:07;2.17;;;0.68;;
27424;SDS011;15244;49.088;11.886;2023-10-31T15:13:09;0.57;;;0.50;;
27424;SDS011;15244;49.088;11.886;2023-10-31T15:18:11;5.85;;;0.80;;
27424;SDS011;15244;49.088;11.886;2023-10-31T15:23:13;5.40;;;0.90;;
27424;SDS011;15244;49.088;11.886;2023-10-31T15:28:16;1.17;;;0.73;;
27424;SDS011;15244;49.088;11.886;2023-10-31T15:33:20;3.20;;;1.65;;
27424;SDS011;15244;49.088;11.886;2023-10-31T15:38:22;2.42;;;0.85;;
27424;SDS011;15244;49.088;11.886;2023-10-31T15:43:24;1.88;;;0.80;;
27424;SDS011;15244;49.088;11.886;2023-10-31T15:48:26;1.90;;;1.10;;
27424;SDS011;15244;49.088;11.886;2023-10-31T15:53:28;1.10;;;1.00;;
27424;SDS011;15244;49.088;11.886;2023-10-31T15:58:30;2.63;;;1.20;;
27424;SDS011;15244;49.088;11.886;2023-10-31T16:03:31;2.00;;;1.30;;
27424;SDS011;15244;49.088;11.886;2023-10-31T16:08:34;4.50;;;1.67;;
27424;SDS011;15244;49.088;11.886;2023-10-31T16:13:35;1.85;;;1.50;;
27424;SDS011;15244;49.088;11.886;2023-10-31T16:18:38;2.03;;;1.50;;
27424;SDS011;15244;49.088;11.886;2023-10-31T16:23:40;5.20;;;1.63;;
27424;SDS011;15244;49.088;11.886;2023-10-31T16:28:43;2.70;;;1.60;;
27424;SDS011;15244;49.088;11.886;2023-10-31T16:33:48;2.60;;;1.63;;
27424;SDS011;15244;49.088;11.886;2023-10-31T16:38:50;4.00;;;1.67;;
27424;SDS011;15244;49.088;11.886;2023-10-31T16:43:52;2.88;;;1.40;;
27424;SDS011;15244;49.088;11.886;2023-10-31T16:48:53;1.20;;;1.05;;
27424;SDS011;15244;49.088;11.886;2023-10-31T16:53:55;4.20;;;1.58;;
27424;SDS011;15244;49.088;11.886;2023-10-31T16:58:58;4.78;;;1.75;;
27424;SDS011;15244;49.088;11.886;2023-10-31T17:04:02;3.88;;;1.92;;
27424;SDS011;15244;49.088;11.886;2023-10-31T17:09:04;1.75;;;1.58;;
27424;SDS011;15244;49.088;11.886;2023-10-31T17:14:06;3.58;;;1.65;;
27424;SDS011;15244;49.088;11.886;2023-10-31T17:19:11;3.25;;;1.40;;
27424;SDS011;15244;49.088;11.886;2023-10-31T17:24:13;1.35;;;1.25;;
27424;SDS011;15244;49.088;11.886;2023-10-31T17:29:17;1.88;;;1.40;;
27424;SDS011;15244;49.088;11.886;2023-10-31T17:34:19;2.45;;;2.22;;
27424;SDS011;15244;49.088;11.886;2023-10-31T17:39:21;2.35;;;1.50;;
27424;SDS011;15244;49.088;11.886;2023-10-31T17:44:23;1.30;;;1.20;;
27424;SDS011;15244;49.088;11.886;2023-10-31T17:49:26;3.72;;;1.60;;
27424;SDS011;15244;49.088;11.886;2023-10-31T17:54:28;4.40;;;1.40;;
27424;SDS011;15244;49.088;11.886;2023-10-31T17:59:30;1.35;;;1.10;;
27424;SDS011;15244;49.088;11.886;2023-10-31T18:04:32;1.30;;;1.05;;
27424;SDS011;15244;49.088;11.886;2023-10-31T18:09:36;5.82;;;1.45;;
27424;SDS011;15244;49.088;11.886;2023-10-31T18:14:38;3.15;;;1.40;;
27424;SDS011;15244;49.088;11.886;2023-10-31T18:19:40;2.67;;;1.42;;
27424;SDS011;15244;49.088;11.886;2023-10-31T18:24:43;2.72;;;1.52;;
27424;SDS011;15244;49.088;11.886;2023-10-31T18:29:45;1.73;;;1.30;;
27424;SDS011;15244;49.088;11.886;2023-10-31T18:34:47;1.60;;;1.50;;
27424;SDS011;15244;49.088;11.886;2023-10-31T18:39:49;0.98;;;0.98;;
27424;SDS011;15244;49.088;11.886;2023-10-31T18:44:51;6.50;;;5.97;;
27424;SDS011;15244;49.088;11.886;2023-10-31T18:49:55;3.55;;;3.25;;
27424;SDS011;15244;49.088;11.886;2023-10-31T18:54:58;2.78;;;1.90;;
27424;SDS011;15244;49.088;11.886;2023-10-31T19:00:01;1.60;;;1.40;;
27424;SDS011;15244;49.088;11.886;2023-10-31T19:05:04;2.30;;;1.70;;
27424;SDS011;15244;49.088;11.886;2023-10-31T19:10:07;1.63;;;1.20;;
27424;SDS011;15244;49.088;11.886;2023-10-31T19:15:11;2.03;;;1.30;;
27424;SDS011;15244;49.088;11.886;2023-10-31T19:20:14;1.83;;;0.90;;
27424;SDS011;15244;49.088;11.886;2023-10-31T19:25:17;2.85;;;1.50;;
27424;SDS011;15244;49.088;11.886;2023-10-31T19:30:19;1.83;;;1.52;;
27424;SDS011;15244;49.088;11.886;2023-10-31T19:35:21;1.35;;;1.25;;
27424;SDS011;15244;49.088;11.886;2023-10-31T19:40:25;0.80;;;0.80;;
27424;SDS011;15244;49.088;11.886;2023-10-31T19:45:28;2.20;;;2.10;;
27424;SDS011;15244;49.088;11.886;2023-10-31T19:50:33;2.67;;;1.08;;
27424;SDS011;15244;49.088;11.886;2023-10-31T19:55:36;3.60;;;0.77;;
27424;SDS011;15244;49.088;11.886;2023-10-31T20:00:38;1.40;;;0.95;;
27424;SDS011;15244;49.088;11.886;2023-10-31T20:05:40;1.52;;;0.90;;
27424;SDS011;15244;49.088;11.886;2023-10-31T20:10:42;2.58;;;1.45;;
27424;SDS011;15244;49.088;11.886;2023-10-31T20:15:44;2.33;;;0.75;;
27424;SDS011;15244;49.088;11.886;2023-10-31T20:20:46;0.77;;;0.63;;
27424;SDS011;15244;49.088;11.886;2023-10-31T20:25:49;1.45;;;0.90;;
27424;SDS011;15244;49.088;11.886;2023-10-31T20:30:53;0.98;;;0.82;;
27424;SDS011;15244;49.088;11.886;2023-10-31T20:35:55;0.85;;;0.85;;
27424;SDS011;15244;49.088;11.886;2023-10-31T20:40:57;0.68;;;0.60;;
27424;SDS011;15244;49.088;11.886;2023-10-31T20:45:59;1.95;;;0.57;;
27424;SDS011;15244;49.088;11.886;2023-10-31T20:51:01;1.42;;;0.75;;
27424;SDS011;15244;49.088;11.886;2023-10-31T20:56:03;0.50;;;0.50;;
27424;SDS011;15244;49.088;11.886;2023-10-31T21:01:09;0.65;;;0.65;;
27424;SDS011;15244;49.088;11.886;2023-10-31T21:06:13;1.40;;;0.50;;
27424;SDS011;15244;49.088;11.886;2023-10-31T21:11:17;0.63;;;0.55;;
27424;SDS011;15244;49.088;11.886;2023-10-31T21:16:20;0.70;;;0.57;;
27424;SDS011;15244;49.088;11.886;2023-10-31T21:21:22;1.45;;;0.98;;
27424;SDS011;15244;49.088;11.886;2023-10-31T21:26:24;0.70;;;0.70;;
27424;SDS011;15244;49.088;11.886;2023-10-31T21:31:26;1.55;;;0.90;;
27424;SDS011;15244;49.088;11.886;2023-10-31T21:36:28;2.17;;;1.98;;
27424;SDS011;15244;49.088;11.886;2023-10-31T21:41:31;1.10;;;1.00;;
27424;SDS011;15244;49.088;11.886;2023-10-31T21:46:33;1.40;;;1.30;;
27424;SDS011;15244;49.088;11.886;2023-10-31T21:51:35;2.20;;;1.20;;
27424;SDS011;15244;49.088;11.886;2023-10-31T21:56:37;2.03;;;1.70;;
27424;SDS011;15244;49.088;11.886;2023-10-31T22:01:39;2.22;;;2.03;;
27424;SDS011;15244;49.088;11.886;2023-10-31T22:06:42;2.40;;;2.25;;
27424;SDS011;15244;49.088;11.886;2023-10-31T22:11:44;3.00;;;2.08;;
27424;SDS011;15244;49.088;11.886;2023-10-31T22:16:46;3.13;;;2.92;;
27424;SDS011;15244;49.088;11.886;2023-10-31T22:21:48;4.13;;;3.70;;
27424;SDS011;15244;49.088;11.886;2023-10-31T22:26:50;4.78;;;4.47;;
27424;SDS011;15244;49.088;11.886;2023-10-31T22:31:51;3.75;;;3.45;;
27424;SDS011;15244;49.088;11.886;2023-10-31T22:36:53;4.78;;;3.40;;
27424;SDS011;15244;49.088;11.886;2023-10-31T22:41:56;2.00;;;1.90;;
27424;SDS011;15244;49.088;11.886;2023-10-31T22:46:58;2.30;;;2.20;;
27424;SDS011;15244;49.088;11.886;2023-10-31T22:52:00;2.28;;;2.10;;
27424;SDS011;15244;49.088;11.886;2023-10-31T22:57:01;2.20;;;2.10;;
27424;SDS011;15244;49.088;11.886;2023-10-31T23:02:03;4.18;;;1.80;;
27424;SDS011;15244;49.088;11.886;2023-10-31T23:07:06;2.17;;;2.08;;
27424;SDS011;15244;49.088;11.886;2023-10-31T23:12:08;2.10;;;2.00;;
27424;SDS011;15244;49.088;11.886;2023-10-31T23:17:09;2.10;;;1.85;;
27424;SDS011;15244;49.088;11.886;2023-10-31T23:22:11;1.63;;;1.52;;
27424;SDS011;15244;49.088;11.886;2023-10-31T23:27:14;1.77;;;1.67;;
27424;SDS011;15244;49.088;11.886;2023-10-31T23:32:17;2.45;;;2.30;;
27424;SDS011;15244;49.088;11.886;2023-10-31T23:37:19;1.85;;;1.75;;
27424;SDS011;15244;49.088;11.886;2023-10-31T23:42:20;3.63;;;2.20;;
27424;SDS011;15244;49.088;11.886;2023-10-31T23:47:22;2.85;;;2.65;;
27424;SDS011;15244;49.088;11.886;2023-10-31T23:52:26;3.00;;;2.80;;
27424;SDS011;15244;49.088;11.886;2023-10-31T23:57:27;3.10;;;2.90;;
